sensor_id;sensor_type;location;lat;lon;timestamp;pressure;altitude;pressure_sealevel;temperature;humidity
59859;BME280;45734;53.648;9.566;2023-03-19T00:00:36;53770.88;;;-145.06;100.00
59859;BME280;45734;53.648;9.566;2023-03-19T00:05:36;53762.78;;;-145.06;100.00
59859;BME280;45734;53.648;9.566;2023-03-19T00:10:37;53730.38;;;-145.06;100.00
59859;BME280;45734;53.648;9.566;2023-03-19T00:15:37;53760.75;;;-145.06;100.00
59859;BME280;45734;53.648;9.566;2023-03-19T00:20:37;53750.63;;;-145.06;100.00
59859;BME280;45734;53.648;9.566;2023-03-19T00:25:38;53809.34;;;-145.06;100.00
59859;BME280;45734;53.648;9.566;2023-03-19T00:30:38;53760.75;;;-145.06;100.00
59859;BME280;45734;53.648;9.566;2023-03-19T00:35:38;53766.81;;;-145.06;100.00
59859;BME280;45734;53.648;9.566;2023-03-19T00:40:39;53799.22;;;-145.06;100.00
59859;BME280;45734;53.648;9.566;2023-03-19T00:45:40;53785.06;;;-145.06;100.00
59859;BME280;45734;53.648;9.566;2023-03-19T00:50:40;53772.91;;;-145.06;100.00
59859;BME280;45734;53.648;9.566;2023-03-19T00:55:40;53762.78;;;-145.06;100.00
59859;BME280;45734;53.648;9.566;2023-03-19T01:00:41;53738.47;;;-145.06;100.00
59859;BME280;45734;53.648;9.566;2023-03-19T01:05:41;53770.88;;;-145.06;100.00
59859;BME280;45734;53.648;9.566;2023-03-19T01:10:42;53793.16;;;-145.06;100.00
59859;BME280;45734;53.648;9.566;2023-03-19T01:15:42;53728.34;;;-145.06;100.00
59859;BME280;45734;53.648;9.566;2023-03-19T01:20:43;53774.94;;;-145.06;100.00
59859;BME280;45734;53.648;9.566;2023-03-19T01:25:43;53789.09;;;-145.06;100.00
59859;BME280;45734;53.648;9.566;2023-03-19T01:30:43;53744.56;;;-145.06;100.00
59859;BME280;45734;53.648;9.566;2023-03-19T01:35:44;53795.19;;;-145.06;100.00
59859;BME280;45734;53.648;9.566;2023-03-19T01:40:45;53728.34;;;-145.06;100.00
59859;BME280;45734;53.648;9.566;2023-03-19T01:45:46;53772.91;;;-145.06;100.00
59859;BME280;45734;53.648;9.566;2023-03-19T01:50:46;53762.78;;;-145.06;100.00
59859;BME280;45734;53.648;9.566;2023-03-19T01:55:49;53740.50;;;-145.06;100.00
59859;BME280;45734;53.648;9.566;2023-03-19T02:00:49;53764.81;;;-145.06;100.00
59859;BME280;45734;53.648;9.566;2023-03-19T02:05:50;53772.91;;;-145.06;100.00
59859;BME280;45734;53.648;9.566;2023-03-19T02:10:51;53774.94;;;-145.06;100.00
59859;BME280;45734;53.648;9.566;2023-03-19T02:15:53;53770.88;;;-145.06;100.00
59859;BME280;45734;53.648;9.566;2023-03-19T02:20:57;53785.06;;;-145.06;100.00
59859;BME280;45734;53.648;9.566;2023-03-19T02:26:07;53789.09;;;-145.06;100.00
59859;BME280;45734;53.648;9.566;2023-03-19T02:31:08;53774.94;;;-145.06;100.00
59859;BME280;45734;53.648;9.566;2023-03-19T02:36:10;53770.88;;;-145.06;100.00
59859;BME280;45734;53.648;9.566;2023-03-19T02:41:11;53764.81;;;-145.06;100.00
59859;BME280;45734;53.648;9.566;2023-03-19T02:46:11;53787.06;;;-145.06;100.00
59859;BME280;45734;53.648;9.566;2023-03-19T02:51:12;53758.72;;;-145.06;100.00
59859;BME280;45734;53.648;9.566;2023-03-19T02:56:12;53742.53;;;-145.06;100.00
59859;BME280;45734;53.648;9.566;2023-03-19T03:01:13;53746.56;;;-145.06;100.00
59859;BME280;45734;53.648;9.566;2023-03-19T03:06:13;53823.53;;;-145.06;100.00
59859;BME280;45734;53.648;9.566;2023-03-19T03:11:13;53805.31;;;-145.06;100.00
59859;BME280;45734;53.648;9.566;2023-03-19T03:16:13;53783.03;;;-145.06;100.00
59859;BME280;45734;53.648;9.566;2023-03-19T03:21:14;53746.56;;;-145.06;100.00
59859;BME280;45734;53.648;9.566;2023-03-19T03:26:18;53799.22;;;-145.06;100.00
59859;BME280;45734;53.648;9.566;2023-03-19T03:31:19;53781.00;;;-145.06;100.00
59859;BME280;45734;53.648;9.566;2023-03-19T03:36:20;53772.91;;;-145.06;100.00
59859;BME280;45734;53.648;9.566;2023-03-19T03:41:20;53795.19;;;-145.06;100.00
59859;BME280;45734;53.648;9.566;2023-03-19T03:46:20;53787.06;;;-145.06;100.00
59859;BME280;45734;53.648;9.566;2023-03-19T03:51:21;53772.91;;;-145.06;100.00
59859;BME280;45734;53.648;9.566;2023-03-19T03:56:21;53760.75;;;-145.06;100.00
59859;BME280;45734;53.648;9.566;2023-03-19T04:01:21;53791.13;;;-145.06;100.00
59859;BME280;45734;53.648;9.566;2023-03-19T04:06:22;53778.97;;;-145.06;100.00
59859;BME280;45734;53.648;9.566;2023-03-19T04:11:23;53803.28;;;-145.06;100.00
59859;BME280;45734;53.648;9.566;2023-03-19T04:16:23;53768.84;;;-145.06;100.00
59859;BME280;45734;53.648;9.566;2023-03-19T04:21:23;53815.44;;;-145.06;100.00
59859;BME280;45734;53.648;9.566;2023-03-19T04:26:25;53793.16;;;-145.06;100.00
59859;BME280;45734;53.648;9.566;2023-03-19T04:31:25;53770.88;;;-145.06;100.00
59859;BME280;45734;53.648;9.566;2023-03-19T04:36:25;53776.94;;;-145.06;100.00
59859;BME280;45734;53.648;9.566;2023-03-19T04:41:25;53774.94;;;-145.06;100.00
59859;BME280;45734;53.648;9.566;2023-03-19T04:46:26;53778.97;;;-145.06;100.00
59859;BME280;45734;53.648;9.566;2023-03-19T04:51:26;53778.97;;;-145.06;100.00
59859;BME280;45734;53.648;9.566;2023-03-19T04:56:27;53736.44;;;-145.06;100.00
59859;BME280;45734;53.648;9.566;2023-03-19T05:01:27;53770.88;;;-145.06;100.00
59859;BME280;45734;53.648;9.566;2023-03-19T05:06:27;53813.41;;;-145.06;100.00
59859;BME280;45734;53.648;9.566;2023-03-19T05:11:27;53738.47;;;-145.06;100.00
59859;BME280;45734;53.648;9.566;2023-03-19T05:16:28;53789.09;;;-145.06;100.00
59859;BME280;45734;53.648;9.566;2023-03-19T05:21:28;53774.94;;;-145.06;100.00
59859;BME280;45734;53.648;9.566;2023-03-19T05:26:28;53815.44;;;-145.06;100.00
59859;BME280;45734;53.648;9.566;2023-03-19T05:31:28;53795.19;;;-145.06;100.00
59859;BME280;45734;53.648;9.566;2023-03-19T05:36:29;53783.03;;;-145.06;100.00
59859;BME280;45734;53.648;9.566;2023-03-19T05:41:29;53770.88;;;-145.06;100.00
59859;BME280;45734;53.648;9.566;2023-03-19T05:46:29;53807.31;;;-145.06;100.00
59859;BME280;45734;53.648;9.566;2023-03-19T05:51:30;53795.19;;;-145.06;100.00
59859;BME280;45734;53.648;9.566;2023-03-19T05:56:30;53797.22;;;-145.06;100.00
59859;BME280;45734;53.648;9.566;2023-03-19T06:01:31;53778.97;;;-145.06;100.00
59859;BME280;45734;53.648;9.566;2023-03-19T06:06:31;53785.06;;;-145.06;100.00
59859;BME280;45734;53.648;9.566;2023-03-19T06:11:31;53768.84;;;-145.06;100.00
59859;BME280;45734;53.648;9.566;2023-03-19T06:16:31;53791.13;;;-145.06;100.00
59859;BME280;45734;53.648;9.566;2023-03-19T06:21:31;53797.22;;;-145.06;100.00
59859;BME280;45734;53.648;9.566;2023-03-19T06:26:32;53781.00;;;-145.06;100.00
59859;BME280;45734;53.648;9.566;2023-03-19T06:31:32;53815.44;;;-145.06;100.00
59859;BME280;45734;53.648;9.566;2023-03-19T06:36:32;53843.78;;;-145.06;100.00
59859;BME280;45734;53.648;9.566;2023-03-19T06:41:32;53783.03;;;-145.06;100.00
59859;BME280;45734;53.648;9.566;2023-03-19T06:46:33;53770.88;;;-145.06;100.00
59859;BME280;45734;53.648;9.566;2023-03-19T06:51:33;53783.03;;;-145.06;100.00
59859;BME280;45734;53.648;9.566;2023-03-19T06:56:33;53799.22;;;-145.06;100.00
59859;BME280;45734;53.648;9.566;2023-03-19T07:01:33;53815.44;;;-145.06;100.00
59859;BME280;45734;53.648;9.566;2023-03-19T07:06:34;53772.91;;;-145.06;100.00
59859;BME280;45734;53.648;9.566;2023-03-19T07:11:34;53787.06;;;-145.06;100.00
59859;BME280;45734;53.648;9.566;2023-03-19T07:16:34;53764.81;;;-145.06;100.00
59859;BME280;45734;53.648;9.566;2023-03-19T07:21:35;53776.94;;;-145.06;100.00
59859;BME280;45734;53.648;9.566;2023-03-19T07:26:35;53778.97;;;-145.06;100.00
59859;BME280;45734;53.648;9.566;2023-03-19T07:31:35;53756.69;;;-145.06;100.00
59859;BME280;45734;53.648;9.566;2023-03-19T07:36:35;53781.00;;;-145.06;100.00
59859;BME280;45734;53.648;9.566;2023-03-19T07:41:36;53754.69;;;-145.06;100.00
59859;BME280;45734;53.648;9.566;2023-03-19T07:46:36;53629.13;;;-145.06;100.00
59859;BME280;45734;53.648;9.566;2023-03-19T07:51:36;53566.34;;;-145.06;100.00
59859;BME280;45734;53.648;9.566;2023-03-19T07:56:36;53704.06;;;-145.06;100.00
59859;BME280;45734;53.648;9.566;2023-03-19T08:01:37;53683.81;;;-145.06;100.00
59859;BME280;45734;53.648;9.566;2023-03-19T08:06:37;53710.13;;;-145.06;100.00
59859;BME280;45734;53.648;9.566;2023-03-19T08:11:37;53726.31;;;-145.06;100.00
59859;BME280;45734;53.648;9.566;2023-03-19T08:16:37;53693.94;;;-145.06;100.00
59859;BME280;45734;53.648;9.566;2023-03-19T08:21:38;53695.94;;;-145.06;100.00
59859;BME280;45734;53.648;9.566;2023-03-19T08:26:38;53732.41;;;-145.06;100.00
59859;BME280;45734;53.648;9.566;2023-03-19T08:31:38;53740.50;;;-145.06;100.00
59859;BME280;45734;53.648;9.566;2023-03-19T08:36:38;53683.81;;;-145.06;100.00
59859;BME280;45734;53.648;9.566;2023-03-19T08:41:38;53697.97;;;-145.06;100.00
59859;BME280;45734;53.648;9.566;2023-03-19T08:46:39;53673.69;;;-145.06;100.00
59859;BME280;45734;53.648;9.566;2023-03-19T08:51:39;53673.69;;;-145.06;100.00
59859;BME280;45734;53.648;9.566;2023-03-19T08:56:39;53619.00;;;-145.06;100.00
59859;BME280;45734;53.648;9.566;2023-03-19T09:01:39;53578.50;;;-145.06;100.00
59859;BME280;45734;53.648;9.566;2023-03-19T09:06:40;53619.00;;;-145.06;100.00
59859;BME280;45734;53.648;9.566;2023-03-19T09:11:41;53667.59;;;-145.06;100.00
59859;BME280;45734;53.648;9.566;2023-03-19T09:16:41;53661.53;;;-145.06;100.00
59859;BME280;45734;53.648;9.566;2023-03-19T09:21:41;53675.69;;;-145.06;100.00
59859;BME280;45734;53.648;9.566;2023-03-19T09:26:42;53706.06;;;-145.06;100.00
59859;BME280;45734;53.648;9.566;2023-03-19T09:31:42;53673.69;;;-145.06;100.00
59859;BME280;45734;53.648;9.566;2023-03-19T09:36:42;53655.44;;;-145.06;100.00
59859;BME280;45734;53.648;9.566;2023-03-19T09:41:54;53691.91;;;-145.06;100.00
59859;BME280;45734;53.648;9.566;2023-03-19T09:57:14;53697.97;;;-145.06;100.00
59859;BME280;45734;53.648;9.566;2023-03-19T10:12:48;53673.69;;;-145.06;100.00
59859;BME280;45734;53.648;9.566;2023-03-19T10:18:09;53697.97;;;-145.06;100.00
59859;BME280;45734;53.648;9.566;2023-03-19T10:28:14;53665.56;;;-145.06;100.00
59859;BME280;45734;53.648;9.566;2023-03-19T10:33:25;53683.81;;;-145.06;100.00
59859;BME280;45734;53.648;9.566;2023-03-19T10:38:37;53649.38;;;-145.06;100.00
59859;BME280;45734;53.648;9.566;2023-03-19T10:43:38;53689.88;;;-145.06;100.00
59859;BME280;45734;53.648;9.566;2023-03-19T10:48:41;53704.06;;;-145.06;100.00
59859;BME280;45734;53.648;9.566;2023-03-19T10:53:42;53687.84;;;-145.06;100.00
59859;BME280;45734;53.648;9.566;2023-03-19T10:58:54;53657.47;;;-145.06;100.00
59859;BME280;45734;53.648;9.566;2023-03-19T11:03:55;53661.53;;;-145.06;100.00
59859;BME280;45734;53.648;9.566;2023-03-19T11:13:56;53675.69;;;-145.06;100.00
59859;BME280;45734;53.648;9.566;2023-03-19T11:18:56;53665.56;;;-145.06;100.00
59859;BME280;45734;53.648;9.566;2023-03-19T11:24:01;53671.66;;;-145.06;100.00
59859;BME280;45734;53.648;9.566;2023-03-19T11:29:03;53663.56;;;-145.06;100.00
59859;BME280;45734;53.648;9.566;2023-03-19T11:44:15;53661.53;;;-145.06;100.00
59859;BME280;45734;53.648;9.566;2023-03-19T11:49:21;53685.81;;;-145.06;100.00
59859;BME280;45734;53.648;9.566;2023-03-19T11:54:48;53663.56;;;-145.06;100.00
59859;BME280;45734;53.648;9.566;2023-03-19T12:00:00;53681.78;;;-145.06;100.00
59859;BME280;45734;53.648;9.566;2023-03-19T12:05:07;53700.00;;;-145.06;100.00
59859;BME280;45734;53.648;9.566;2023-03-19T12:15:26;53645.31;;;-145.06;100.00
59859;BME280;45734;53.648;9.566;2023-03-19T12:20:31;53661.53;;;-145.06;100.00
59859;BME280;45734;53.648;9.566;2023-03-19T12:25:37;53627.09;;;-145.06;100.00
59859;BME280;45734;53.648;9.566;2023-03-19T12:30:41;53645.31;;;-145.06;100.00
59859;BME280;45734;53.648;9.566;2023-03-19T12:35:45;53685.81;;;-145.06;100.00
59859;BME280;45734;53.648;9.566;2023-03-19T12:40:48;53667.59;;;-145.06;100.00
59859;BME280;45734;53.648;9.566;2023-03-19T12:45:51;53685.81;;;-145.06;100.00
59859;BME280;45734;53.648;9.566;2023-03-19T12:50:55;53681.78;;;-145.06;100.00
59859;BME280;45734;53.648;9.566;2023-03-19T12:55:59;53663.56;;;-145.06;100.00
59859;BME280;45734;53.648;9.566;2023-03-19T13:01:13;53689.88;;;-145.06;100.00
59859;BME280;45734;53.648;9.566;2023-03-19T13:11:17;53689.88;;;-145.06;100.00
59859;BME280;45734;53.648;9.566;2023-03-19T13:16:32;53691.91;;;-145.06;100.00
59859;BME280;45734;53.648;9.566;2023-03-19T13:21:37;53665.56;;;-145.06;100.00
59859;BME280;45734;53.648;9.566;2023-03-19T13:26:38;53675.69;;;-145.06;100.00
59859;BME280;45734;53.648;9.566;2023-03-19T13:31:39;53641.28;;;-145.06;100.00
59859;BME280;45734;53.648;9.566;2023-03-19T13:36:39;53645.31;;;-145.06;100.00
59859;BME280;45734;53.648;9.566;2023-03-19T13:46:41;53677.72;;;-145.06;100.00
59859;BME280;45734;53.648;9.566;2023-03-19T13:51:45;53651.41;;;-145.06;100.00
59859;BME280;45734;53.648;9.566;2023-03-19T14:02:43;53675.69;;;-145.06;100.00
59859;BME280;45734;53.648;9.566;2023-03-19T14:07:27;53677.72;;;-145.06;100.00
59859;BME280;45734;53.648;9.566;2023-03-19T14:12:33;53667.59;;;-145.06;100.00
59859;BME280;45734;53.648;9.566;2023-03-19T14:17:35;53663.56;;;-145.06;100.00
59859;BME280;45734;53.648;9.566;2023-03-19T14:22:36;53675.69;;;-145.06;100.00
59859;BME280;45734;53.648;9.566;2023-03-19T14:27:40;53677.72;;;-145.06;100.00
59859;BME280;45734;53.648;9.566;2023-03-19T14:32:42;53661.53;;;-145.06;100.00
59859;BME280;45734;53.648;9.566;2023-03-19T14:37:48;53702.03;;;-145.06;100.00
59859;BME280;45734;53.648;9.566;2023-03-19T14:42:56;53693.94;;;-145.06;100.00
59859;BME280;45734;53.648;9.566;2023-03-19T14:48:05;53645.31;;;-145.06;100.00
59859;BME280;45734;53.648;9.566;2023-03-19T14:53:10;53665.56;;;-145.06;100.00
59859;BME280;45734;53.648;9.566;2023-03-19T14:58:13;53663.56;;;-145.06;100.00
59859;BME280;45734;53.648;9.566;2023-03-19T15:03:50;53697.97;;;-145.06;100.00
59859;BME280;45734;53.648;9.566;2023-03-19T15:08:40;53663.56;;;-145.06;100.00
59859;BME280;45734;53.648;9.566;2023-03-19T15:18:44;53702.03;;;-145.06;100.00
59859;BME280;45734;53.648;9.566;2023-03-19T15:23:45;53669.63;;;-145.06;100.00
59859;BME280;45734;53.648;9.566;2023-03-19T15:28:47;53704.06;;;-145.06;100.00
59859;BME280;45734;53.648;9.566;2023-03-19T15:33:49;53665.56;;;-145.06;100.00
59859;BME280;45734;53.648;9.566;2023-03-19T15:38:51;53661.53;;;-145.06;100.00
59859;BME280;45734;53.648;9.566;2023-03-19T15:43:53;53673.69;;;-145.06;100.00
59859;BME280;45734;53.648;9.566;2023-03-19T15:48:57;53673.69;;;-145.06;100.00
59859;BME280;45734;53.648;9.566;2023-03-19T15:53:58;53677.72;;;-145.06;100.00
59859;BME280;45734;53.648;9.566;2023-03-19T15:58:59;53669.63;;;-145.06;100.00
59859;BME280;45734;53.648;9.566;2023-03-19T16:04:00;53675.69;;;-145.06;100.00
59859;BME280;45734;53.648;9.566;2023-03-19T16:09:11;53673.69;;;-145.06;100.00
59859;BME280;45734;53.648;9.566;2023-03-19T16:24:43;53704.06;;;-145.06;100.00
59859;BME280;45734;53.648;9.566;2023-03-19T16:29:54;53702.03;;;-145.06;100.00
59859;BME280;45734;53.648;9.566;2023-03-19T16:35:08;53681.78;;;-145.06;100.00
59859;BME280;45734;53.648;9.566;2023-03-19T16:50:18;53734.44;;;-145.06;100.00
59859;BME280;45734;53.648;9.566;2023-03-19T17:00:23;53687.84;;;-145.06;100.00
59859;BME280;45734;53.648;9.566;2023-03-19T17:05:24;53738.47;;;-145.06;100.00
59859;BME280;45734;53.648;9.566;2023-03-19T17:10:26;53730.38;;;-145.06;100.00
59859;BME280;45734;53.648;9.566;2023-03-19T17:15:28;53693.94;;;-145.06;100.00
59859;BME280;45734;53.648;9.566;2023-03-19T17:20:31;53700.00;;;-145.06;100.00
59859;BME280;45734;53.648;9.566;2023-03-19T17:25:32;53653.44;;;-145.06;100.00
59859;BME280;45734;53.648;9.566;2023-03-19T17:30:32;53708.09;;;-145.06;100.00
59859;BME280;45734;53.648;9.566;2023-03-19T17:35:32;53706.06;;;-145.06;100.00
59859;BME280;45734;53.648;9.566;2023-03-19T17:40:33;53714.19;;;-145.06;100.00
59859;BME280;45734;53.648;9.566;2023-03-19T17:45:33;53702.03;;;-145.06;100.00
59859;BME280;45734;53.648;9.566;2023-03-19T17:50:33;53730.38;;;-145.06;100.00
59859;BME280;45734;53.648;9.566;2023-03-19T17:55:33;53710.13;;;-145.06;100.00
59859;BME280;45734;53.648;9.566;2023-03-19T18:00:34;53708.09;;;-145.06;100.00
59859;BME280;45734;53.648;9.566;2023-03-19T18:05:34;53697.97;;;-145.06;100.00
59859;BME280;45734;53.648;9.566;2023-03-19T18:10:34;53740.50;;;-145.06;100.00
59859;BME280;45734;53.648;9.566;2023-03-19T18:15:35;53714.19;;;-145.06;100.00
59859;BME280;45734;53.648;9.566;2023-03-19T18:20:36;53724.31;;;-145.06;100.00
59859;BME280;45734;53.648;9.566;2023-03-19T18:25:37;53689.88;;;-145.06;100.00
59859;BME280;45734;53.648;9.566;2023-03-19T18:30:38;53756.69;;;-145.06;100.00
59859;BME280;45734;53.648;9.566;2023-03-19T18:35:40;53795.19;;;-145.06;100.00
59859;BME280;45734;53.648;9.566;2023-03-19T18:40:41;53746.56;;;-145.06;100.00
59859;BME280;45734;53.648;9.566;2023-03-19T18:45:41;53748.59;;;-145.06;100.00
59859;BME280;45734;53.648;9.566;2023-03-19T18:50:41;53778.97;;;-145.06;100.00
59859;BME280;45734;53.648;9.566;2023-03-19T18:55:42;53762.78;;;-145.06;100.00
59859;BME280;45734;53.648;9.566;2023-03-19T19:00:42;53716.19;;;-145.06;100.00
59859;BME280;45734;53.648;9.566;2023-03-19T19:05:43;53732.41;;;-145.06;100.00
59859;BME280;45734;53.648;9.566;2023-03-19T19:10:53;53738.47;;;-145.06;100.00
59859;BME280;45734;53.648;9.566;2023-03-19T19:15:54;53744.56;;;-145.06;100.00
59859;BME280;45734;53.648;9.566;2023-03-19T19:20:54;53768.84;;;-145.06;100.00
59859;BME280;45734;53.648;9.566;2023-03-19T19:25:56;53781.00;;;-145.06;100.00
59859;BME280;45734;53.648;9.566;2023-03-19T19:30:57;53750.63;;;-145.06;100.00
59859;BME280;45734;53.648;9.566;2023-03-19T19:35:57;53770.88;;;-145.06;100.00
59859;BME280;45734;53.648;9.566;2023-03-19T19:40:58;53774.94;;;-145.06;100.00
59859;BME280;45734;53.648;9.566;2023-03-19T19:45:59;53766.81;;;-145.06;100.00
59859;BME280;45734;53.648;9.566;2023-03-19T19:50:59;53754.69;;;-145.06;100.00
59859;BME280;45734;53.648;9.566;2023-03-19T19:56:00;53760.75;;;-145.06;100.00
59859;BME280;45734;53.648;9.566;2023-03-19T20:01:07;53778.97;;;-145.06;100.00
59859;BME280;45734;53.648;9.566;2023-03-19T20:06:12;53758.72;;;-145.06;100.00
59859;BME280;45734;53.648;9.566;2023-03-19T20:11:17;53768.84;;;-145.06;100.00
59859;BME280;45734;53.648;9.566;2023-03-19T20:16:19;53768.84;;;-145.06;100.00
59859;BME280;45734;53.648;9.566;2023-03-19T20:21:20;53776.94;;;-145.06;100.00
59859;BME280;45734;53.648;9.566;2023-03-19T20:26:21;53756.69;;;-145.06;100.00
59859;BME280;45734;53.648;9.566;2023-03-19T20:31:27;53795.19;;;-145.06;100.00
59859;BME280;45734;53.648;9.566;2023-03-19T20:36:28;53768.84;;;-145.06;100.00
59859;BME280;45734;53.648;9.566;2023-03-19T20:41:28;53750.63;;;-145.06;100.00
59859;BME280;45734;53.648;9.566;2023-03-19T20:46:29;53778.97;;;-145.06;100.00
59859;BME280;45734;53.648;9.566;2023-03-19T20:51:29;53760.75;;;-145.06;100.00
59859;BME280;45734;53.648;9.566;2023-03-19T20:56:30;53760.75;;;-145.06;100.00
59859;BME280;45734;53.648;9.566;2023-03-19T21:01:30;53778.97;;;-145.06;100.00
59859;BME280;45734;53.648;9.566;2023-03-19T21:06:31;53746.56;;;-145.06;100.00
59859;BME280;45734;53.648;9.566;2023-03-19T21:11:38;53758.72;;;-145.06;100.00
59859;BME280;45734;53.648;9.566;2023-03-19T21:16:39;53758.72;;;-145.06;100.00
59859;BME280;45734;53.648;9.566;2023-03-19T21:21:39;53770.88;;;-145.06;100.00
59859;BME280;45734;53.648;9.566;2023-03-19T21:26:41;53783.03;;;-145.06;100.00
59859;BME280;45734;53.648;9.566;2023-03-19T21:31:43;53783.03;;;-145.06;100.00
59859;BME280;45734;53.648;9.566;2023-03-19T21:36:43;53764.81;;;-145.06;100.00
59859;BME280;45734;53.648;9.566;2023-03-19T21:41:43;53783.03;;;-145.06;100.00
59859;BME280;45734;53.648;9.566;2023-03-19T21:46:45;53752.66;;;-145.06;100.00
59859;BME280;45734;53.648;9.566;2023-03-19T21:51:46;53793.16;;;-145.06;100.00
59859;BME280;45734;53.648;9.566;2023-03-19T21:56:46;53766.81;;;-145.06;100.00
59859;BME280;45734;53.648;9.566;2023-03-19T22:01:47;53758.72;;;-145.06;100.00
59859;BME280;45734;53.648;9.566;2023-03-19T22:06:47;53801.25;;;-145.06;100.00
59859;BME280;45734;53.648;9.566;2023-03-19T22:11:48;53778.97;;;-145.06;100.00
59859;BME280;45734;53.648;9.566;2023-03-19T22:16:48;53787.06;;;-145.06;100.00
59859;BME280;45734;53.648;9.566;2023-03-19T22:21:50;53758.72;;;-145.06;100.00
59859;BME280;45734;53.648;9.566;2023-03-19T22:26:51;53770.88;;;-145.06;100.00
59859;BME280;45734;53.648;9.566;2023-03-19T22:31:55;53766.81;;;-145.06;100.00
59859;BME280;45734;53.648;9.566;2023-03-19T22:36:56;53748.59;;;-145.06;100.00
59859;BME280;45734;53.648;9.566;2023-03-19T22:41:56;53760.75;;;-145.06;100.00
59859;BME280;45734;53.648;9.566;2023-03-19T22:46:57;53805.31;;;-145.06;100.00
59859;BME280;45734;53.648;9.566;2023-03-19T22:51:57;53738.47;;;-145.06;100.00
59859;BME280;45734;53.648;9.566;2023-03-19T22:56:58;53783.03;;;-145.06;100.00
59859;BME280;45734;53.648;9.566;2023-03-19T23:01:58;53787.06;;;-145.06;100.00
59859;BME280;45734;53.648;9.566;2023-03-19T23:06:59;53730.38;;;-145.06;100.00
59859;BME280;45734;53.648;9.566;2023-03-19T23:12:00;53799.22;;;-145.06;100.00
59859;BME280;45734;53.648;9.566;2023-03-19T23:17:13;53783.03;;;-145.06;100.00
59859;BME280;45734;53.648;9.566;2023-03-19T23:22:16;53785.06;;;-145.06;100.00
59859;BME280;45734;53.648;9.566;2023-03-19T23:27:25;53781.00;;;-145.06;100.00
59859;BME280;45734;53.648;9.566;2023-03-19T23:32:25;53797.22;;;-145.06;100.00
59859;BME280;45734;53.648;9.566;2023-03-19T23:37:26;53766.81;;;-145.06;100.00
59859;BME280;45734;53.648;9.566;2023-03-19T23:42:27;53783.03;;;-145.06;100.00
59859;BME280;45734;53.648;9.566;2023-03-19T23:47:29;53783.03;;;-145.06;100.00
59859;BME280;45734;53.648;9.566;2023-03-19T23:52:29;53789.09;;;-145.06;100.00
59859;BME280;45734;53.648;9.566;2023-03-19T23:57:29;53762.78;;;-145.06;100.00
